Time;durP1;ratioP1;P1;durP2;ratioP2;P2;SDS_P1;SDS_P2;PMS_P1;PMS_P2;Temp;Humidity;BMP_temperature;BMP_pressure;BME280_temperature;BME280_humidity;BME280_pressure;Samples;Min_cycle;Max_cycle;Signal;HPM_P1;HPM_P2
2022/10/06 00:00:13;;;;;;;2.45;0.60;;;;;;;16.08;42.99;101828.09;5055636;28;20040;-69
2022/10/06 00:02:41;;;;;;;2.25;0.40;;;;;;;16.01;42.56;101846.25;5066787;28;20110;-69
2022/10/06 00:05:09;;;;;;;1.02;0.43;;;;;;;15.97;42.80;101831.88;5065815;28;20044;-69
2022/10/06 00:07:37;;;;;;;1.45;0.60;;;;;;;15.95;42.76;101838.56;5066951;28;20079;-68
2022/10/06 00:10:08;;;;;;;1.88;0.60;;;;;;;15.92;42.98;101836.94;5067012;28;20497;-69
2022/10/06 00:12:40;;;;;;;0.57;0.43;;;;;;;15.92;43.36;101830.59;5065854;28;20048;-69
2022/10/06 00:15:10;;;;;;;0.95;0.40;;;;;;;15.86;42.93;101827.38;5066232;28;20052;-69
2022/10/06 00:17:38;;;;;;;2.28;0.40;;;;;;;15.86;43.20;101830.13;5054256;28;20462;-69
2022/10/06 00:20:09;;;;;;;1.70;0.50;;;;;;;15.85;43.36;101835.78;5049322;28;20631;-69
2022/10/06 00:22:39;;;;;;;1.70;0.40;;;;;;;15.84;42.93;101842.31;5064658;28;20044;-69
2022/10/06 00:25:10;;;;;;;0.70;0.40;;;;;;;15.85;43.62;101852.34;5067431;28;20040;-68
2022/10/06 00:27:40;;;;;;;0.90;0.47;;;;;;;15.83;43.53;101855.28;5067154;28;20075;-69
2022/10/06 00:30:12;;;;;;;0.98;0.60;;;;;;;15.82;43.50;101859.06;5067044;28;20405;-69
2022/10/06 00:32:40;;;;;;;1.52;0.50;;;;;;;15.81;43.43;101859.19;5048725;28;20084;-69
2022/10/06 00:35:09;;;;;;;1.25;0.60;;;;;;;15.79;43.57;101859.34;5041214;28;20123;-69
2022/10/06 00:37:38;;;;;;;1.55;0.45;;;;;;;15.79;43.65;101863.97;5049123;28;20115;-69
2022/10/06 00:40:09;;;;;;;1.33;0.55;;;;;;;15.77;43.57;101861.38;5050412;28;20055;-69
2022/10/06 00:42:50;;;;;;;0.95;0.52;;;;;;;15.79;43.87;101873.13;5066175;28;20505;-68
2022/10/06 00:45:21;;;;;;;1.52;0.43;;;;;;;15.75;43.35;101874.47;5053834;28;20044;-68
2022/10/06 00:47:48;;;;;;;1.13;0.57;;;;;;;15.73;43.81;101879.25;5067151;28;20448;-68
2022/10/06 00:50:17;;;;;;;2.15;0.52;;;;;;;15.73;43.43;101881.13;5067790;28;20084;-68
2022/10/06 00:52:45;;;;;;;1.60;0.40;;;;;;;15.71;43.38;101884.03;5061753;28;20036;-68
2022/10/06 00:55:15;;;;;;;1.25;0.40;;;;;;;15.71;43.99;101888.66;5048567;28;20045;-69
2022/10/06 00:57:45;;;;;;;1.48;0.40;;;;;;;15.69;43.43;101891.56;5066428;28;20052;-69
2022/10/06 01:00:14;;;;;;;0.90;0.47;;;;;;;15.68;43.75;101900.84;5067143;28;20040;-69
2022/10/06 01:02:48;;;;;;;1.48;0.60;;;;;;;15.69;44.01;101896.22;5047919;28;20132;-69
2022/10/06 01:05:22;;;;;;;2.17;0.65;;;;;;;15.68;43.94;101897.22;5044242;28;20099;-69
2022/10/06 01:07:51;;;;;;;1.20;0.60;;;;;;;15.64;44.02;101896.66;5048753;28;20526;-68
2022/10/06 01:10:21;;;;;;;1.92;0.75;;;;;;;15.64;43.61;101899.41;5066708;28;20044;-69
2022/10/06 01:12:49;;;;;;;2.03;0.65;;;;;;;15.61;43.94;101913.47;5048784;28;20083;-69
2022/10/06 01:15:17;;;;;;;1.27;0.50;;;;;;;15.58;43.70;101913.78;5066772;28;20036;-69
2022/10/06 01:17:51;;;;;;;0.45;0.32;;;;;;;15.59;44.04;101917.41;5066718;28;20438;-69
2022/10/06 01:20:20;;;;;;;2.20;0.80;;;;;;;15.56;44.01;101915.81;5048966;28;20167;-69
2022/10/06 01:22:52;;;;;;;1.23;0.60;;;;;;;15.56;44.27;101937.88;5048930;28;20033;-69
2022/10/06 01:25:22;;;;;;;1.90;0.90;;;;;;;15.52;44.36;101937.28;5064504;28;20052;-69
2022/10/06 01:27:53;;;;;;;1.40;0.57;;;;;;;15.50;44.00;101928.28;5066730;28;20070;-69
2022/10/06 01:30:28;;;;;;;1.85;0.80;;;;;;;15.47;44.04;101935.97;5065208;28;20036;-68
2022/10/06 01:32:57;;;;;;;2.00;0.65;;;;;;;15.44;44.41;101939.00;5065357;28;20079;-69
2022/10/06 01:35:25;;;;;;;1.55;0.80;;;;;;;15.41;44.22;101929.13;5057137;28;20040;-69
2022/10/06 01:37:57;;;;;;;1.95;0.70;;;;;;;15.40;44.28;101932.03;5052607;28;20665;-68
2022/10/06 01:40:28;;;;;;;1.25;0.73;;;;;;;15.36;44.29;101941.56;5039569;28;20041;-68
2022/10/06 01:42:58;;;;;;;1.10;0.65;;;;;;;15.32;44.41;101962.16;5048786;28;20456;-68
2022/10/06 01:45:28;;;;;;;2.10;0.93;;;;;;;15.31;44.67;101961.28;5068344;28;20041;-68
2022/10/06 01:47:55;;;;;;;2.10;0.70;;;;;;;15.30;44.64;101967.81;5052164;28;20051;-68
2022/10/06 01:50:23;;;;;;;1.55;0.73;;;;;;;15.28;44.54;101957.91;5051150;28;20045;-68
2022/10/06 01:52:52;;;;;;;2.00;0.80;;;;;;;15.27;44.45;101947.88;5051857;28;20045;-68
2022/10/06 01:55:21;;;;;;;1.70;0.80;;;;;;;15.26;44.95;101963.56;5057633;28;20093;-68
2022/10/06 01:57:49;;;;;;;3.08;0.65;;;;;;;15.24;45.01;101956.47;5085090;23;20103;-79
2022/10/06 02:00:18;;;;;;;1.90;0.68;;;;;;;15.24;45.07;101970.25;5051989;28;20048;-80
2022/10/06 02:02:47;;;;;;;1.70;0.70;;;;;;;15.23;45.19;101965.75;5048966;28;20053;-80
2022/10/06 02:05:15;;;;;;;2.50;0.68;;;;;;;15.19;44.68;101973.41;5051185;28;20037;-79
2022/10/06 02:07:46;;;;;;;1.25;0.90;;;;;;;15.18;44.85;101970.81;5064862;28;20064;-84
2022/10/06 02:10:16;;;;;;;2.03;1.00;;;;;;;15.17;45.31;101974.56;5024578;28;20051;-80
2022/10/06 02:12:50;;;;;;;1.08;0.77;;;;;;;15.18;45.11;101982.69;5056368;28;20049;-81
2022/10/06 02:15:20;;;;;;;2.67;0.85;;;;;;;15.14;45.20;101990.38;5034731;28;20067;-81
2022/10/06 02:17:48;;;;;;;1.80;0.73;;;;;;;15.13;45.18;101976.72;5054520;28;20426;-83
2022/10/06 02:20:16;;;;;;;1.42;0.80;;;;;;;15.14;45.38;101981.22;5037796;28;20144;-83
2022/10/06 02:22:44;;;;;;;1.95;0.90;;;;;;;15.13;45.55;101993.25;5072372;28;20506;-83
2022/10/06 02:25:12;;;;;;;3.85;1.10;;;;;;;15.13;45.65;101998.78;5041362;28;20075;-80
2022/10/06 02:27:40;;;;;;;3.05;1.00;;;;;;;15.11;45.81;101998.03;5045412;28;20439;-80
2022/10/06 02:30:13;;;;;;;2.00;0.85;;;;;;;15.13;45.32;101990.50;5051645;28;20045;-80
2022/10/06 02:32:42;;;;;;;3.22;1.17;;;;;;;15.10;45.76;101993.53;5044524;28;20056;-81
2022/10/06 02:35:12;;;;;;;1.85;0.77;;;;;;;15.10;45.54;101999.03;5046716;28;20369;-80
2022/10/06 02:37:41;;;;;;;1.98;0.80;;;;;;;15.11;45.60;102003.53;5043406;28;20075;-80
2022/10/06 02:40:11;;;;;;;1.73;0.63;;;;;;;15.09;45.18;102008.34;5031095;28;20049;-80
2022/10/06 02:42:39;;;;;;;2.28;0.90;;;;;;;15.08;45.54;102015.75;5041385;28;20053;-81
2022/10/06 02:45:08;;;;;;;4.68;1.42;;;;;;;15.08;45.54;102025.91;5026076;28;20034;-80
2022/10/06 02:47:38;;;;;;;3.40;1.10;;;;;;;15.06;44.83;102020.50;5048446;28;20116;-81
2022/10/06 02:50:08;;;;;;;2.60;1.10;;;;;;;15.04;45.37;102019.75;5061230;28;20047;-83
2022/10/06 02:52:39;;;;;;;2.28;1.13;;;;;;;15.02;45.37;102029.16;5045590;28;20041;-81
2022/10/06 02:55:09;;;;;;;2.65;0.80;;;;;;;14.99;45.19;102027.59;5035315;28;20040;-79
2022/10/06 02:57:37;;;;;;;3.13;0.90;;;;;;;14.96;45.47;102030.59;5037254;28;20557;-79
2022/10/06 03:00:07;;;;;;;2.58;0.93;;;;;;;14.96;44.91;102035.22;5048898;28;20040;-79
2022/10/06 03:02:35;;;;;;;3.70;0.90;;;;;;;14.93;44.86;102043.78;5050112;28;20056;-80
2022/10/06 03:05:06;;;;;;;2.25;0.85;;;;;;;14.93;45.34;102052.06;5055786;28;20064;-80
2022/10/06 03:07:34;;;;;;;3.00;1.10;;;;;;;14.89;45.21;102051.44;5050414;28;20063;-80
2022/10/06 03:10:02;;;;;;;1.67;0.82;;;;;;;14.87;45.11;102049.81;5040980;28;20041;-80
2022/10/06 03:12:30;;;;;;;3.38;0.90;;;;;;;14.85;44.92;102049.09;5055540;28;20126;-80
2022/10/06 03:14:58;;;;;;;2.78;0.80;;;;;;;14.83;45.32;102059.38;5065663;28;20068;-81
2022/10/06 03:17:26;;;;;;;2.47;1.00;;;;;;;14.80;45.11;102060.50;5063382;28;20087;-80
2022/10/06 03:19:56;;;;;;;3.72;0.88;;;;;;;14.78;45.25;102062.50;5045660;28;20049;-80
2022/10/06 03:22:26;;;;;;;2.63;0.90;;;;;;;14.76;45.22;102065.38;5067982;28;20057;-81
2022/10/06 03:24:56;;;;;;;3.28;0.90;;;;;;;14.73;44.75;102071.19;5067877;28;20040;-81
2022/10/06 03:27:25;;;;;;;3.42;1.10;;;;;;;14.72;44.80;102076.81;5041361;28;20411;-81
2022/10/06 03:29:56;;;;;;;2.42;0.90;;;;;;;14.70;44.79;102081.59;5038180;28;20511;-81
2022/10/06 03:32:27;;;;;;;3.78;1.00;;;;;;;14.68;45.08;102095.50;5071299;28;20033;-81
2022/10/06 03:34:55;;;;;;;2.92;0.75;;;;;;;14.66;44.68;102093.91;5053886;28;20515;-81
2022/10/06 03:37:22;;;;;;;2.97;0.82;;;;;;;14.65;44.64;102105.91;5025076;28;20044;-81
2022/10/06 03:39:52;;;;;;;2.25;0.75;;;;;;;14.65;44.89;102108.66;5032955;28;20055;-81
2022/10/06 03:42:20;;;;;;;3.72;1.00;;;;;;;14.61;45.10;102112.69;5045935;28;20036;-81
2022/10/06 03:44:48;;;;;;;4.30;1.20;;;;;;;14.60;44.89;102120.06;5048511;28;20052;-81
2022/10/06 03:47:16;;;;;;;3.35;0.93;;;;;;;14.59;44.65;102134.00;5032069;28;20053;-81
2022/10/06 03:49:45;;;;;;;2.50;1.08;;;;;;;14.57;45.06;102144.25;5048958;28;20076;-81
2022/10/06 03:52:15;;;;;;;1.80;0.80;;;;;;;14.57;44.81;102144.25;5025780;28;20055;-81
2022/10/06 03:54:43;;;;;;;2.42;0.98;;;;;;;14.55;44.54;102146.25;5049187;28;20068;-81
2022/10/06 03:57:12;;;;;;;1.58;0.90;;;;;;;14.55;45.12;102147.16;5033097;28;20045;-81
2022/10/06 03:59:40;;;;;;;2.97;0.90;;;;;;;14.52;45.02;102149.31;5040206;28;20525;-81
2022/10/06 04:02:10;;;;;;;4.10;1.00;;;;;;;14.50;44.88;102154.94;5059051;28;20045;-81
2022/10/06 04:04:37;;;;;;;4.20;1.33;;;;;;;14.49;44.78;102160.56;5038980;28;20048;-81
2022/10/06 04:07:08;;;;;;;4.85;1.02;;;;;;;14.46;44.56;102160.78;5053714;28;20049;-81
2022/10/06 04:09:36;;;;;;;2.72;1.00;;;;;;;14.44;44.70;102169.16;5058620;28;20037;-81
2022/10/06 04:12:04;;;;;;;3.20;1.20;;;;;;;14.43;44.96;102172.94;5032218;28;20075;-81
2022/10/06 04:14:36;;;;;;;2.30;0.90;;;;;;;14.42;44.81;102173.94;5043447;28;20044;-81
2022/10/06 04:17:05;;;;;;;3.53;1.02;;;;;;;14.38;44.63;102186.22;5068923;28;20112;-81
2022/10/06 04:19:38;;;;;;;1.65;0.90;;;;;;;14.36;44.40;102183.56;5046721;28;20068;-81
2022/10/06 04:22:07;;;;;;;3.83;1.00;;;;;;;14.33;44.60;102183.84;5037015;28;20043;-81
2022/10/06 04:24:35;;;;;;;2.67;1.08;;;;;;;14.32;44.54;102189.47;5024552;28;20083;-81
2022/10/06 04:29:55;;;;;;;5.20;1.35;;;;;;;14.28;44.64;102187.97;5055006;28;20079;-82
2022/10/06 04:32:23;;;;;;;5.03;1.00;;;;;;;14.24;44.59;102190.09;5032986;28;20045;-81
2022/10/06 04:34:51;;;;;;;4.97;1.15;;;;;;;14.23;44.33;102202.13;5043545;28;20061;-81
2022/10/06 04:37:19;;;;;;;3.53;1.20;;;;;;;14.21;44.51;102206.88;5058050;28;20049;-81
2022/10/06 04:39:46;;;;;;;4.45;1.30;;;;;;;14.19;44.31;102210.78;5051794;28;20076;-81
2022/10/06 04:42:14;;;;;;;4.43;1.40;;;;;;;14.17;44.74;102216.41;5037194;28;20041;-81
2022/10/06 04:44:42;;;;;;;5.28;1.30;;;;;;;14.14;44.12;102216.63;5032647;28;20117;-81
2022/10/06 04:47:11;;;;;;;2.33;0.93;;;;;;;14.13;44.45;102223.13;5058563;28;20047;-81
2022/10/06 04:49:39;;;;;;;3.67;1.10;;;;;;;14.10;44.61;102217.91;5024355;28;20483;-81
2022/10/06 04:52:08;;;;;;;3.97;1.10;;;;;;;14.08;44.49;102219.03;5045546;28;20546;-81
2022/10/06 04:54:38;;;;;;;3.88;1.52;;;;;;;14.06;44.42;102226.53;5034851;28;20637;-83
2022/10/06 04:57:08;;;;;;;3.03;1.20;;;;;;;14.03;43.78;102230.38;5030325;28;20037;-82
2022/10/06 05:02:24;;;;;;;5.07;1.30;;;;;;;13.98;44.13;102235.41;5049886;28;20049;-80
2022/10/06 05:04:56;;;;;;;5.20;1.52;;;;;;;13.92;43.86;102245.03;5033945;28;20041;-82
2022/10/06 05:07:25;;;;;;;4.38;1.40;;;;;;;13.91;43.68;102239.66;5049289;28;20053;-82
2022/10/06 05:09:55;;;;;;;4.57;1.10;;;;;;;13.89;43.84;102250.75;5047452;28;20049;-82
2022/10/06 05:12:22;;;;;;;3.42;1.00;;;;;;;13.86;43.98;102253.75;5065246;28;20041;-81
2022/10/06 05:14:51;;;;;;;4.82;1.08;;;;;;;13.85;43.69;102268.53;5054216;28;20052;-83
2022/10/06 05:17:18;;;;;;;3.70;1.20;;;;;;;13.82;44.01;102270.66;5037083;28;20037;-83
2022/10/06 05:19:48;;;;;;;4.82;1.25;;;;;;;13.82;43.97;102270.66;5037601;28;20041;-81
2022/10/06 05:22:16;;;;;;;4.38;1.40;;;;;;;13.77;44.00;102270.16;5036679;28;20049;-83
2022/10/06 05:24:44;;;;;;;6.50;1.20;;;;;;;13.76;43.61;102279.38;5050533;28;20059;-83
2022/10/06 05:27:12;;;;;;;4.25;1.00;;;;;;;13.74;43.59;102284.13;5042685;28;20487;-82
2022/10/06 05:29:40;;;;;;;3.17;1.27;;;;;;;13.72;44.02;102283.38;5056568;28;20041;-82
2022/10/06 05:32:09;;;;;;;3.95;1.45;;;;;;;13.70;43.53;102285.34;5041619;28;20052;-81
2022/10/06 05:34:37;;;;;;;3.33;1.00;;;;;;;13.69;43.98;102286.38;5051967;28;20124;-82
2022/10/06 05:37:07;;;;;;;3.17;1.40;;;;;;;13.70;44.05;102299.09;5022876;28;20044;-80
2022/10/06 05:39:35;;;;;;;4.20;1.25;;;;;;;13.67;43.54;102296.63;5052470;28;20491;-82
2022/10/06 05:42:03;;;;;;;3.35;1.20;;;;;;;13.65;43.68;102302.22;5001927;28;20046;-78
2022/10/06 05:44:31;;;;;;;4.30;1.30;;;;;;;13.63;43.97;102315.22;5036847;28;20048;-81
2022/10/06 05:47:04;;;;;;;4.90;1.50;;;;;;;13.59;43.96;102317.34;5032132;28;20504;-82
2022/10/06 05:49:32;;;;;;;5.40;1.55;;;;;;;13.59;43.83;102325.59;5055372;28;20041;-80
2022/10/06 05:52:02;;;;;;;5.10;1.20;;;;;;;13.58;43.78;102323.84;5031940;28;20183;-78
2022/10/06 05:54:34;;;;;;;3.78;1.27;;;;;;;13.58;43.58;102322.97;5048547;28;20048;-79
2022/10/06 05:57:02;;;;;;;5.03;1.35;;;;;;;13.55;43.98;102331.41;5053261;28;20052;-80
2022/10/06 05:59:32;;;;;;;10.07;1.70;;;;;;;13.55;43.70;102342.41;5039056;28;20044;-81
2022/10/06 06:02:02;;;;;;;5.22;2.00;;;;;;;13.53;43.81;102342.53;5039136;28;20042;-80
2022/10/06 06:04:34;;;;;;;4.30;1.20;;;;;;;13.51;43.61;102347.28;5034972;28;20072;-82
2022/10/06 06:07:02;;;;;;;4.45;1.70;;;;;;;13.52;43.99;102354.56;5048220;28;20033;-81
2022/10/06 06:09:30;;;;;;;9.07;2.08;;;;;;;13.51;43.94;102358.28;5029093;28;20042;-82
2022/10/06 06:12:04;;;;;;;4.18;1.30;;;;;;;13.51;44.09;102357.41;5035088;28;20049;-83
2022/10/06 06:17:33;;;;;;;4.40;1.33;;;;;;;13.49;43.79;102357.53;5034547;28;20045;-81
2022/10/06 06:20:04;;;;;;;4.45;1.20;;;;;;;13.50;43.61;102375.78;5034109;28;20346;-81
2022/10/06 06:22:31;;;;;;;5.28;2.00;;;;;;;13.50;43.96;102362.03;5035272;28;20049;-81
2022/10/06 06:25:00;;;;;;;3.90;1.27;;;;;;;13.51;43.63;102382.16;5036058;28;20558;-81
2022/10/06 06:27:31;;;;;;;3.13;1.27;;;;;;;13.53;43.83;102374.69;5046515;28;20136;-79
2022/10/06 06:29:58;;;;;;;6.80;1.50;;;;;;;13.51;43.87;102372.03;5053454;28;20056;-82
2022/10/06 06:32:27;;;;;;;5.35;1.13;;;;;;;13.53;44.21;102381.03;5045032;28;20045;-82
2022/10/06 06:34:57;;;;;;;3.58;1.10;;;;;;;13.56;44.66;102394.59;5029790;28;20470;-81
2022/10/06 06:37:30;;;;;;;6.35;1.75;;;;;;;13.61;44.49;102389.63;5045169;28;20037;-82
2022/10/06 06:39:58;;;;;;;4.95;1.60;;;;;;;13.69;44.99;102385.44;5032361;28;20057;-80
2022/10/06 06:42:26;;;;;;;7.88;1.65;;;;;;;13.79;45.16;102386.44;5031418;28;20052;-80
2022/10/06 06:45:01;;;;;;;;;;;;;;;13.63;45.15;102401.38;5073598;28;20144;-81
2022/10/06 06:47:38;;;;;;;5.45;1.40;;;;;;;14.04;45.91;102412.94;5058531;28;20359;-81
2022/10/06 06:50:09;;;;;;;5.60;1.38;;;;;;;14.29;45.56;102415.53;5036308;28;20103;-80
2022/10/06 06:52:40;;;;;;;5.45;1.88;;;;;;;14.50;46.01;102418.50;5046664;28;20090;-80
2022/10/06 06:55:10;;;;;;;5.65;1.40;;;;;;;14.75;45.45;102416.44;5026408;28;20055;-81
2022/10/06 06:57:41;;;;;;;5.50;1.52;;;;;;;15.03;45.23;102423.31;5036576;28;20103;-81
2022/10/06 07:00:11;;;;;;;5.25;1.27;;;;;;;15.34;45.09;102420.84;5052609;28;20053;-81
2022/10/06 07:02:40;;;;;;;5.25;1.40;;;;;;;15.62;45.06;102425.78;5053592;28;20045;-81
2022/10/06 07:05:10;;;;;;;2.90;1.33;;;;;;;15.93;44.87;102426.78;5035317;28;20439;-81
2022/10/06 07:07:38;;;;;;;6.68;1.73;;;;;;;16.22;44.41;102430.72;5054130;28;20056;-82
2022/10/06 07:10:08;;;;;;;5.25;1.65;;;;;;;16.54;43.99;102432.56;5050274;28;20034;-81
2022/10/06 07:12:37;;;;;;;4.40;1.55;;;;;;;16.83;42.99;102432.72;5062235;28;20411;-81
2022/10/06 07:26:14;;;;;;;5.57;1.70;;;;;;;18.24;41.18;102476.88;5031268;28;20045;-82
2022/10/06 07:28:43;;;;;;;5.07;2.03;;;;;;;18.47;40.29;102476.44;5036087;28;20094;-83
2022/10/06 07:31:13;;;;;;;5.60;1.60;;;;;;;18.67;39.68;102479.22;5033525;28;20037;-83
2022/10/06 07:33:42;;;;;;;7.40;1.65;;;;;;;18.89;38.95;102495.53;5035359;28;20080;-83
2022/10/06 07:36:10;;;;;;;5.25;1.40;;;;;;;19.04;38.57;102487.63;5047554;28;20459;-80
2022/10/06 07:38:40;;;;;;;6.13;1.63;;;;;;;19.18;38.13;102490.78;5051534;28;20033;-80
2022/10/06 07:41:08;;;;;;;6.85;1.73;;;;;;;19.32;37.73;102491.34;5033319;28;20665;-80
2022/10/06 07:43:58;;;;;;;5.65;1.90;;;;;;;19.44;37.58;102501.25;5050956;28;20135;-80
2022/10/06 07:46:28;;;;;;;5.15;1.40;;;;;;;19.53;36.93;102506.75;5033314;28;20056;-80
2022/10/06 07:49:03;;;;;;;8.27;1.83;;;;;;;19.63;36.62;102510.31;5050591;28;20075;-80
2022/10/06 07:51:31;;;;;;;5.15;1.65;;;;;;;19.68;36.06;102509.00;5034034;28;20568;-81
2022/10/06 07:54:02;;;;;;;6.22;1.80;;;;;;;19.70;35.33;102513.38;5037423;28;20098;-83
2022/10/06 07:56:53;;;;;;;4.30;1.83;;;;;;;19.69;35.76;102522.75;5041460;28;20045;-80
2022/10/06 07:59:21;;;;;;;6.03;1.73;;;;;;;19.70;35.43;102518.06;5051358;23;20276;-82
2022/10/06 08:01:51;;;;;;;6.90;1.90;;;;;;;19.66;35.27;102523.03;5063499;28;20044;-82
2022/10/06 08:04:20;;;;;;;5.38;1.63;;;;;;;19.63;34.89;102527.00;5047371;28;20084;-82
2022/10/06 08:06:49;;;;;;;5.78;1.48;;;;;;;19.56;34.92;102528.63;5054533;28;20099;-82
2022/10/06 08:09:17;;;;;;;6.30;1.35;;;;;;;19.50;35.13;102529.25;5049078;28;20052;-82
2022/10/06 08:11:46;;;;;;;5.78;1.60;;;;;;;19.42;35.06;102534.69;5059535;28;20052;-82
2022/10/06 08:14:14;;;;;;;6.22;1.50;;;;;;;19.37;34.96;102544.53;5076578;28;20053;-82
2022/10/06 08:16:42;;;;;;;5.18;1.50;;;;;;;19.30;34.71;102548.91;5059176;28;20406;-82
2022/10/06 08:19:10;;;;;;;4.72;1.35;;;;;;;19.21;35.34;102543.22;5059974;28;20084;-82
2022/10/06 08:21:39;;;;;;;6.13;1.90;;;;;;;19.17;34.94;102547.31;5046302;28;20175;-83
2022/10/06 08:24:08;;;;;;;6.15;1.70;;;;;;;19.09;34.70;102558.28;5057227;28;20052;-83
2022/10/06 08:26:36;;;;;;;3.58;1.58;;;;;;;19.04;35.18;102554.22;5063628;28;20426;-81
2022/10/06 08:29:04;;;;;;;5.93;1.70;;;;;;;18.97;35.38;102553.91;5054930;28;20049;-82
2022/10/06 08:31:32;;;;;;;4.35;1.40;;;;;;;18.94;35.48;102570.00;5070728;28;20052;-81
2022/10/06 08:34:01;;;;;;;6.22;1.52;;;;;;;18.86;35.39;102554.97;5051515;28;20564;-81
2022/10/06 08:36:29;;;;;;;4.80;1.48;;;;;;;18.83;35.46;102554.38;5048795;28;20055;-82
2022/10/06 08:39:01;;;;;;;5.20;1.90;;;;;;;18.81;35.56;102554.53;5057915;28;20064;-82
2022/10/06 08:41:38;;;;;;;5.25;1.40;;;;;;;18.80;35.07;102557.47;5054688;28;20112;-82
2022/10/06 08:44:20;;;;;;;5.20;1.55;;;;;;;18.75;34.86;102557.03;5071747;28;20522;-82
2022/10/06 08:46:55;;;;;;;4.03;1.17;;;;;;;18.72;35.62;102558.19;5072470;28;20057;-82
2022/10/06 08:49:25;;;;;;;7.15;1.70;;;;;;;18.73;35.32;102561.84;5052044;28;20036;-82
2022/10/06 08:51:59;;;;;;;5.55;1.88;;;;;;;18.73;35.03;102556.28;5055287;28;20070;-82
2022/10/06 08:54:37;;;;;;;5.82;1.50;;;;;;;18.72;34.72;102562.88;5075994;28;20052;-82
2022/10/06 08:57:12;;;;;;;5.97;1.70;;;;;;;18.73;35.32;102568.25;5073695;28;20056;-82
2022/10/06 08:59:44;;;;;;;4.32;1.45;;;;;;;18.74;35.93;102570.00;5072792;28;20505;-82
2022/10/06 09:02:26;;;;;;;3.72;1.23;;;;;;;18.74;35.06;102577.44;5056141;28;20581;-82
2022/10/06 09:04:56;;;;;;;4.30;1.65;;;;;;;18.74;35.20;102583.88;5073783;28;20044;-82
2022/10/06 09:07:32;;;;;;;7.20;2.00;;;;;;;18.77;35.06;102579.94;5068289;28;20067;-82
2022/10/06 09:10:20;;;;;;;4.38;1.40;;;;;;;18.79;34.58;102591.78;5069404;28;20066;-82
2022/10/06 09:12:54;;;;;;;4.97;1.80;;;;;;;18.76;35.49;102590.16;5050696;28;20604;-82
2022/10/06 09:15:35;;;;;;;5.47;1.50;;;;;;;18.83;35.03;102596.00;5078709;28;20044;-82
2022/10/06 09:18:09;;;;;;;5.22;1.23;;;;;;;18.84;35.43;102600.53;5064696;28;20044;-82
2022/10/06 09:20:48;;;;;;;6.28;1.50;;;;;;;18.86;35.00;102606.81;5070951;28;20056;-83
2022/10/06 09:23:46;;;;;;;4.47;1.58;;;;;;;18.90;35.46;102611.03;5056453;28;20052;-81
2022/10/06 09:26:12;;;;;;;5.10;1.60;;;;;;;18.97;35.14;102609.41;5061015;28;20052;-81
2022/10/06 09:28:40;;;;;;;5.82;1.52;;;;;;;18.98;35.25;102604.75;5056124;28;20040;-82
2022/10/06 09:31:20;;;;;;;4.90;1.60;;;;;;;19.05;34.65;102603.16;5054818;28;20043;-81
2022/10/06 09:33:53;;;;;;;4.30;1.60;;;;;;;19.08;35.37;102616.72;5054612;28;20143;-81
2022/10/06 09:36:23;;;;;;;5.13;1.40;;;;;;;19.12;34.99;102605.19;5064287;28;20040;-82
2022/10/06 09:38:54;;;;;;;4.03;1.60;;;;;;;19.15;34.91;102610.41;5069637;28;20048;-82
2022/10/06 09:41:28;;;;;;;8.02;1.50;;;;;;;19.18;34.42;102617.59;5055386;28;20053;-81
2022/10/06 09:43:58;;;;;;;3.92;1.17;;;;;;;19.23;34.77;102623.59;5072347;28;20107;-83
2022/10/06 09:46:32;;;;;;;6.50;1.40;;;;;;;19.27;34.14;102625.94;5045963;28;20044;-82
2022/10/06 09:49:15;;;;;;;6.57;1.60;;;;;;;19.30;34.09;102630.28;5064516;28;20045;-81
2022/10/06 09:51:59;;;;;;;4.22;1.50;;;;;;;19.30;34.30;102618.31;5043045;28;20179;-82
2022/10/06 09:54:28;;;;;;;5.05;1.45;;;;;;;19.35;34.83;102627.09;5058677;28;20041;-82
2022/10/06 09:56:58;;;;;;;5.45;1.20;;;;;;;19.41;34.23;102627.34;5059820;28;20067;-83
2022/10/06 09:59:32;;;;;;;4.15;1.60;;;;;;;19.47;33.90;102629.53;5078343;28;20040;-83
2022/10/06 10:02:25;;;;;;;4.30;1.15;;;;;;;19.54;33.33;102618.72;5051311;28;20045;-82
2022/10/06 10:04:55;;;;;;;5.57;1.60;;;;;;;19.59;33.72;102622.78;5069627;28;20048;-82
2022/10/06 10:07:25;;;;;;;3.67;1.40;;;;;;;19.66;33.68;102620.25;5065076;28;20074;-82
2022/10/06 10:10:10;;;;;;;5.45;1.33;;;;;;;19.72;33.44;102622.44;5059555;28;20075;-82
2022/10/06 10:12:49;;;;;;;4.63;1.05;;;;;;;19.77;32.75;102622.00;5058631;28;20049;-82
2022/10/06 10:15:25;;;;;;;5.03;1.40;;;;;;;19.81;32.58;102624.28;5059504;28;20056;-83
2022/10/06 10:17:56;;;;;;;2.78;1.08;;;;;;;19.81;33.00;102612.31;5061756;28;20048;-83
2022/10/06 10:20:50;;;;;;;4.00;1.20;;;;;;;19.86;32.39;102627.50;5077611;28;20045;-82
2022/10/06 10:23:23;;;;;;;5.38;1.20;;;;;;;19.91;32.01;102629.84;5061012;28;20049;-82
2022/10/06 10:26:16;;;;;;;3.78;1.00;;;;;;;19.95;31.53;102632.16;5060386;28;20406;-83
2022/10/06 10:29:21;;;;;;;3.60;1.13;;;;;;;19.91;31.43;102632.63;5077776;28;20570;-82
2022/10/06 10:31:58;;;;;;;3.05;1.02;;;;;;;19.96;30.81;102633.03;5077307;28;20056;-82
2022/10/06 10:35:01;;;;;;;2.35;1.05;;;;;;;19.96;30.66;102620.00;5078629;28;20063;-82
2022/10/06 10:37:38;;;;;;;3.75;1.00;;;;;;;19.94;30.34;102627.66;5048449;28;20143;-83
2022/10/06 10:40:15;;;;;;;2.95;0.90;;;;;;;19.94;29.59;102629.56;5074831;28;20052;-82
2022/10/06 10:42:48;;;;;;;2.53;0.73;;;;;;;19.89;30.47;102637.41;5072426;28;20510;-81
2022/10/06 10:45:24;;;;;;;3.03;0.95;;;;;;;19.85;29.55;102631.31;5057875;28;20048;-82
2022/10/06 10:47:55;;;;;;;4.82;1.10;;;;;;;19.79;30.22;102626.34;5082527;28;20348;-81
2022/10/06 10:50:27;;;;;;;2.67;0.80;;;;;;;19.76;30.04;102634.13;5088076;28;20060;-81
2022/10/06 10:53:01;;;;;;;3.42;1.13;;;;;;;19.68;30.12;102625.69;5057127;28;20119;-81
2022/10/06 10:55:35;;;;;;;4.05;1.00;;;;;;;19.65;30.12;102630.50;5058747;28;20086;-81
2022/10/06 10:58:13;;;;;;;4.47;1.20;;;;;;;19.61;29.78;102622.63;5077239;28;20542;-81
2022/10/06 11:00:47;;;;;;;4.65;1.10;;;;;;;19.58;30.06;102642.38;5063454;28;20059;-81
2022/10/06 11:03:16;;;;;;;3.50;1.30;;;;;;;19.53;30.52;102626.16;5065863;28;20048;-81
2022/10/06 11:05:59;;;;;;;2.33;0.88;;;;;;;19.55;29.67;102628.75;5063110;28;20131;-81
2022/10/06 11:08:35;;;;;;;2.92;1.23;;;;;;;19.50;30.64;102632.00;5057646;28;20064;-81
2022/10/06 11:11:10;;;;;;;3.33;1.35;;;;;;;19.53;30.46;102633.63;5065613;28;20048;-81
2022/10/06 11:13:43;;;;;;;3.90;1.13;;;;;;;19.54;30.24;102636.22;5055985;28;20339;-81
2022/10/06 11:16:27;;;;;;;4.50;1.20;;;;;;;19.56;30.29;102636.94;5056346;28;20090;-82
2022/10/06 11:19:14;;;;;;;4.07;0.95;;;;;;;19.58;29.69;102631.25;5056515;28;20060;-82
2022/10/06 11:21:47;;;;;;;2.58;0.80;;;;;;;19.56;30.41;102634.19;5058047;28;20059;-81
2022/10/06 11:24:25;;;;;;;3.35;0.98;;;;;;;19.61;30.03;102630.97;5070021;28;20045;-81
2022/10/06 11:27:17;;;;;;;2.85;0.80;;;;;;;19.63;29.44;102638.09;5043779;28;20053;-81
2022/10/06 11:29:56;;;;;;;2.67;0.80;;;;;;;19.68;29.90;102640.44;5049651;28;20087;-83
2022/10/06 11:32:34;;;;;;;3.08;0.95;;;;;;;19.72;29.76;102627.09;5074545;28;20048;-82
2022/10/06 11:35:03;;;;;;;2.67;0.80;;;;;;;19.74;30.16;102631.50;5060747;28;20098;-82
2022/10/06 11:37:38;;;;;;;3.83;0.93;;;;;;;19.79;29.67;102637.44;5064919;28;20048;-82
2022/10/06 11:40:31;;;;;;;3.47;1.10;;;;;;;19.80;29.50;102630.88;5077629;28;20043;-83
2022/10/06 11:43:06;;;;;;;4.57;1.20;;;;;;;19.82;29.66;102623.28;5071421;28;20064;-82
2022/10/06 11:45:44;;;;;;;4.47;1.83;;;;;;;19.88;29.58;102633.75;5065697;28;20037;-83
2022/10/06 11:48:25;;;;;;;3.83;1.00;;;;;;;19.90;29.45;102630.84;5062272;28;20055;-82
2022/10/06 11:50:55;;;;;;;4.22;0.85;;;;;;;19.90;29.87;102630.84;5055516;28;20098;-81
2022/10/06 11:53:27;;;;;;;3.25;1.10;;;;;;;19.95;29.25;102636.88;5081962;28;20036;-83
2022/10/06 11:56:43;;;;;;;3.78;1.10;;;;;;;19.92;28.99;102631.59;5077024;28;20044;-82
2022/10/06 11:59:29;;;;;;;3.38;0.88;;;;;;;19.99;29.54;102633.63;5077528;28;20140;-83
2022/10/06 12:01:59;;;;;;;3.22;1.10;;;;;;;20.01;29.06;102627.91;5058335;28;20118;-84
2022/10/06 12:04:29;;;;;;;2.53;0.98;;;;;;;20.04;29.12;102627.56;5059759;28;20048;-83